Humidity-temperature Sensor

Selected Measurement Type: Relative Humidity

 
Relative Humidity [%]     6 entries per hour
Showing data from 10/5/2015 (00:00:00 Z) to 9/28/2015 (00:01:00 Z)
Previous Next [ Day | 3-Days | 7-Days ]
First Last
Prev [ Day | 3-Days | 7-Days ] Next
First Last

Start Time:     :
End Time:     :     
Time (in GMT) :00 :50 :40 :30 :20 :10
Previous Next [ Day | 3-Days | 7-Days ]
First Last
Prev [ Day | 3-Days | 7-Days ] Next
First Last


123 => good data
MM => data is determined as missing
-- => data not received/configured
Back to Top Back to Top
10/5/2015 00:00 to 23:10 72.76 73.67 73.60 72.98 73.91 74.58
10/4/2015 23:00 to 22:10 74.66 76.09 76.11 75.34 76.01 76.46
10/4/2015 22:00 to 21:10 75.62 75.27 75.29 75.64 75.92 76.46
10/4/2015 21:00 to 20:10 75.72 74.62 75.68 75.21 76.35 77.35
10/4/2015 20:00 to 19:10 76.66 77.50 77.22 77.17 75.66 75.16
10/4/2015 19:00 to 18:10 74.92 76.18 75.16 76.48 76.53 75.42
10/4/2015 18:00 to 17:10 75.68 75.18 76.07 76.57 75.98 75.12
10/4/2015 17:00 to 16:10 74.79 75.98 75.64 74.90 75.08 75.14
10/4/2015 16:00 to 15:10 76.57 76.70 77.05 76.81 76.68 78.63
10/4/2015 15:00 to 14:10 78.56 79.14 78.21 78.76 78.99 78.39
10/4/2015 14:00 to 13:10 78.28 78.93 80.16 79.34 78.97 79.10
10/4/2015 13:00 to 12:10 77.69 78.04 78.19 77.22 77.56 76.42
10/4/2015 12:00 to 11:10 76.42 77.35 77.22 76.74 77.26 76.94
10/4/2015 11:00 to 10:10 75.98 75.90 75.05 74.56 76.59 77.85
10/4/2015 10:00 to 9:10 76.96 77.80 77.37 76.22 76.03 76.18
10/4/2015 09:00 to 8:10 75.55 75.40 78.97 78.21 78.11 77.87
10/4/2015 08:00 to 7:10 77.78 78.78 78.54 77.41 76.37 77.56
10/4/2015 07:00 to 6:10 77.91 78.43 76.87 78.15 78.71 78.04
10/4/2015 06:00 to 5:10 77.56 76.70 76.89 76.01 75.34 75.51
10/4/2015 05:00 to 4:10 75.94 76.40 77.78 76.53 75.88 75.16
10/4/2015 04:00 to 3:10 75.94 76.79 77.46 77.76 77.00 77.13
10/4/2015 03:00 to 2:10 76.63 76.94 76.74 76.31 75.75 75.38
10/4/2015 02:00 to 1:10 74.23 74.66 74.23 72.37 72.63 72.35
10/4/2015 01:00 to 0:10 72.48 71.87 72.11 72.78 73.54 73.17
10/4/2015 00:00 to 23:10 72.78 72.61 73.60 72.37 72.28 73.60
10/3/2015 23:00 to 22:10 72.89 73.91 74.51 74.60 73.95 74.25
10/3/2015 22:00 to 21:10 73.78 74.36 75.62 74.90 74.10 73.37
10/3/2015 21:00 to 20:10 72.76 73.45 74.34 74.53 74.45 73.52
10/3/2015 20:00 to 19:10 73.88 74.69 74.79 74.30 73.60 73.37
10/3/2015 19:00 to 18:10 73.63 73.71 74.32 74.19 74.45 73.95
10/3/2015 18:00 to 17:10 75.51 74.32 74.23 73.45 74.25 74.27
10/3/2015 17:00 to 16:10 73.95 74.17 74.04 74.04 72.89 73.91
10/3/2015 16:00 to 15:10 73.47 75.16 74.10 73.69 74.99 74.73
10/3/2015 15:00 to 14:10 73.82 74.25 74.88 74.77 75.01 74.82
10/3/2015 14:00 to 13:10 74.56 73.50 73.93 74.47 74.51 74.45
10/3/2015 13:00 to 12:10 73.50 74.82 74.51 75.57 73.76 75.47
10/3/2015 12:00 to 11:10 75.79 75.55 75.90 75.90 74.82 76.18
10/3/2015 11:00 to 10:10 75.88 76.50 76.83 76.79 75.85 75.88
10/3/2015 10:00 to 9:10 76.44 74.82 75.40 75.27 74.92 74.92
10/3/2015 09:00 to 8:10 -- -- -- -- -- --
10/3/2015 08:00 to 7:10 75.77 74.53 74.62 76.16 76.09 76.20
10/3/2015 07:00 to 6:10 74.82 74.40 75.83 75.88 76.29 76.35
10/3/2015 06:00 to 5:10 76.37 76.55 76.31 75.70 75.75 75.64
10/3/2015 05:00 to 4:10 76.37 75.40 75.53 75.75 74.34 74.04
10/3/2015 04:00 to 3:10 75.85 75.53 74.47 75.25 73.67 70.90
10/3/2015 03:00 to 2:10 72.28 75.42 74.10 74.71 74.71 74.62
10/3/2015 02:00 to 1:10 73.32 73.32 73.58 73.67 72.67 73.97
10/3/2015 01:00 to 0:10 73.73 72.93 72.80 73.45 74.06 73.11
10/3/2015 00:00 to 23:10 73.34 74.79 73.78 74.32 75.29 75.79
10/2/2015 23:00 to 22:10 75.55 76.48 75.51 75.18 74.99 74.69
10/2/2015 22:00 to 21:10 74.49 75.55 76.33 75.18 75.03 74.90
10/2/2015 21:00 to 20:10 74.45 74.12 75.51 75.25 74.97 75.64
10/2/2015 20:00 to 19:10 76.59 76.55 74.56 73.99 73.86 73.58
10/2/2015 19:00 to 18:10 73.08 74.43 75.10 74.90 76.16 77.54
10/2/2015 18:00 to 17:10 77.11 75.90 76.22 76.22 75.62 76.14
10/2/2015 17:00 to 16:10 76.05 75.90 76.50 77.59 76.87 77.63
10/2/2015 16:00 to 15:10 77.46 78.54 78.67 78.56 77.63 78.97
10/2/2015 15:00 to 14:10 78.39 79.49 78.67 78.41 77.43 78.60
10/2/2015 14:00 to 13:10 77.65 78.86 78.86 78.84 77.87 77.80
10/2/2015 13:00 to 12:10 76.07 76.85 77.24 77.63 78.30 76.76
10/2/2015 12:00 to 11:10 77.11 76.55 76.44 78.82 79.45 78.11
10/2/2015 11:00 to 10:10 78.04 78.56 78.99 78.67 78.17 79.01
10/2/2015 10:00 to 9:10 78.19 79.21 78.58 78.04 77.91 79.47
10/2/2015 09:00 to 8:10 80.68 78.88 79.45 78.04 78.67 77.91
10/2/2015 08:00 to 7:10 78.08 76.27 76.35 75.75 77.17 79.77
10/2/2015 07:00 to 6:10 77.61 80.25 80.08 78.67 76.44 78.69
10/2/2015 06:00 to 5:10 79.10 77.59 75.98 75.31 76.89 77.63
10/2/2015 05:00 to 4:10 76.09 76.59 77.07 78.19 78.78 78.73
10/2/2015 04:00 to 3:10 77.50 77.54 77.39 76.98 75.57 75.42
10/2/2015 03:00 to 2:10 75.10 77.61 77.56 76.35 76.16 77.13
10/2/2015 02:00 to 1:10 78.06 76.68 76.40 75.21 74.34 72.05
10/2/2015 01:00 to 0:10 75.51 75.64 76.33 76.55 76.46 78.76
10/2/2015 00:00 to 23:10 74.92 76.85 78.15 76.89 78.02 76.11
10/1/2015 23:00 to 22:10 76.94 76.14 73.82 75.29 76.29 76.37
10/1/2015 22:00 to 21:10 77.67 77.56 78.17 77.82 77.82 77.69
10/1/2015 21:00 to 20:10 77.43 78.00 77.76 77.17 76.33 76.14
10/1/2015 20:00 to 19:10 75.16 74.84 77.07 77.26 76.76 76.35
10/1/2015 19:00 to 18:10 76.09 77.30 78.71 76.44 76.48 77.20
10/1/2015 18:00 to 17:10 76.79 76.70 74.71 77.11 76.27 75.47
10/1/2015 17:00 to 16:10 74.95 76.98 77.76 78.69 76.44 75.05
10/1/2015 16:00 to 15:10 77.89 76.85 76.22 77.09 76.98 76.35
10/1/2015 15:00 to 14:10 76.61 76.37 76.14 78.28 77.56 77.50
10/1/2015 14:00 to 13:10 77.46 77.67 77.95 77.98 77.28 78.39
10/1/2015 13:00 to 12:10 78.73 77.69 79.12 78.84 78.13 78.15
10/1/2015 12:00 to 11:10 79.77 79.10 77.80 78.73 78.43 77.61
10/1/2015 11:00 to 10:10 76.79 77.30 78.00 78.15 79.30 78.82
10/1/2015 10:00 to 9:10 78.50 78.21 77.89 78.39 80.62 78.37
10/1/2015 09:00 to 8:10 78.80 78.24 77.22 76.83 77.11 77.00
10/1/2015 08:00 to 7:10 78.67 78.43 77.74 78.11 76.79 77.93
10/1/2015 07:00 to 6:10 76.87 76.74 75.49 76.18 76.37 77.87
10/1/2015 06:00 to 5:10 76.87 75.75 75.42 76.11 77.13 77.22
10/1/2015 05:00 to 4:10 78.39 78.65 77.41 78.43 79.08 75.83
10/1/2015 04:00 to 3:10 75.34 75.59 75.38 75.16 75.92 76.74
10/1/2015 03:00 to 2:10 76.48 76.35 76.48 76.94 78.02 75.34
10/1/2015 02:00 to 1:10 75.34 74.99 74.56 73.76 73.95 73.86
10/1/2015 01:00 to 0:10 74.71 74.14 73.52 73.19 72.18 71.18
10/1/2015 00:00 to 23:10 70.44 72.69 73.99 74.43 74.64 74.99
9/30/2015 23:00 to 22:10 75.57 75.34 75.53 76.14 75.21 75.18
9/30/2015 22:00 to 21:10 75.64 75.70 75.98 75.83 75.64 76.33
9/30/2015 21:00 to 20:10 75.31 74.56 75.23 75.68 75.70 75.81
9/30/2015 20:00 to 19:10 75.53 76.37 76.42 75.55 75.21 75.34
9/30/2015 19:00 to 18:10 75.75 74.82 75.27 74.45 73.88 73.52
9/30/2015 18:00 to 17:10 73.63 73.32 72.98 72.95 73.54 72.48
9/30/2015 17:00 to 16:10 72.46 72.69 73.17 74.08 73.76 74.17
9/30/2015 16:00 to 15:10 74.56 75.18 76.03 75.49 76.72 77.54
9/30/2015 15:00 to 14:10 78.19 77.85 77.35 77.87 77.05 76.63
9/30/2015 14:00 to 13:10 75.21 75.42 75.42 75.55 76.85 77.02
9/30/2015 13:00 to 12:10 77.26 77.69 77.89 79.14 78.52 79.17
9/30/2015 12:00 to 11:10 77.76 76.96 77.56 77.09 77.69 76.55
9/30/2015 11:00 to 10:10 76.53 78.19 78.97 78.32 78.63 78.43
9/30/2015 10:00 to 9:10 77.76 77.82 76.48 77.59 77.91 77.33
9/30/2015 09:00 to 8:10 77.26 76.92 77.54 77.02 75.85 76.09
9/30/2015 08:00 to 7:10 75.62 75.72 76.07 75.38 75.79 76.33
9/30/2015 07:00 to 6:10 76.83 76.89 76.48 75.55 77.15 76.70
9/30/2015 06:00 to 5:10 75.10 75.18 75.44 73.93 73.32 73.73
9/30/2015 05:00 to 4:10 73.24 74.30 74.86 74.62 76.07 76.07
9/30/2015 04:00 to 3:10 76.94 76.92 75.49 75.23 74.73 74.51
9/30/2015 03:00 to 2:10 74.92 74.27 71.81 71.98 71.42 73.08
9/30/2015 02:00 to 1:10 73.28 72.72 73.56 73.34 72.85 72.69
9/30/2015 01:00 to 0:10 74.01 74.45 73.54 73.91 72.46 73.56
9/30/2015 00:00 to 23:10 73.71 74.56 75.01 75.08 76.94 76.37
9/29/2015 23:00 to 22:10 76.03 75.98 75.81 74.99 74.04 73.67
9/29/2015 22:00 to 21:10 75.21 74.38 74.66 74.43 74.79 74.47
9/29/2015 21:00 to 20:10 75.36 74.51 73.63 72.95 75.62 76.18
9/29/2015 20:00 to 19:10 75.70 75.85 77.15 76.81 76.79 76.89
9/29/2015 19:00 to 18:10 76.57 76.35 76.42 76.27 75.08 74.36
9/29/2015 18:00 to 17:10 73.84 74.40 74.99 75.64 76.79 75.51
9/29/2015 17:00 to 16:10 74.51 74.27 73.65 73.17 72.72 72.20
9/29/2015 16:00 to 15:10 71.94 72.72 75.03 74.92 75.90 77.02
9/29/2015 15:00 to 14:10 76.46 76.31 75.57 76.40 76.22 76.92
9/29/2015 14:00 to 13:10 75.68 75.53 76.27 76.35 76.92 77.37
9/29/2015 13:00 to 12:10 77.39 76.09 75.94 76.94 76.24 76.72
9/29/2015 12:00 to 11:10 77.33 77.02 76.31 76.16 75.98 76.22
9/29/2015 11:00 to 10:10 75.36 75.44 76.66 76.55 77.67 77.78
9/29/2015 10:00 to 9:10 77.20 76.44 76.81 76.79 76.59 75.57
9/29/2015 09:00 to 8:10 75.31 74.99 77.07 76.24 76.50 77.09
9/29/2015 08:00 to 7:10 76.72 76.55 76.01 75.83 76.18 76.40
9/29/2015 07:00 to 6:10 76.16 77.13 77.09 76.83 76.50 75.68
9/29/2015 06:00 to 5:10 76.20 75.85 75.44 75.92 76.07 75.79
9/29/2015 05:00 to 4:10 75.88 74.86 74.32 74.60 75.64 76.72
9/29/2015 04:00 to 3:10 75.75 75.08 75.23 74.56 74.88 74.88
9/29/2015 03:00 to 2:10 74.34 73.86 72.24 73.17 74.25 72.91
9/29/2015 02:00 to 1:10 70.72 71.01 71.79 71.87 73.15 73.43
9/29/2015 01:00 to 0:10 73.58 74.51 74.21 73.86 74.08 74.38
9/29/2015 00:00 to 23:10 74.90 74.79 74.17 75.03 75.14 74.77
9/28/2015 23:00 to 22:10 75.01 75.47 75.25 75.03 74.56 76.29
9/28/2015 22:00 to 21:10 75.57 76.07 75.51 75.64 76.35 76.53
9/28/2015 21:00 to 20:10 76.53 77.39 76.03 75.88 76.03 76.07
9/28/2015 20:00 to 19:10 76.18 76.55 75.88 76.29 76.94 77.33
9/28/2015 19:00 to 18:10 78.93 78.86 77.61 76.63 78.17 77.78
9/28/2015 18:00 to 17:10 76.48 76.03 74.49 74.49 75.72 73.06
9/28/2015 17:00 to 16:10 73.82 73.37 73.91 73.84 74.06 74.08
9/28/2015 16:00 to 15:10 75.21 75.25 75.08 76.55 76.09 76.29
9/28/2015 15:00 to 14:10 77.80 77.09 76.53 77.26 77.00 77.15
9/28/2015 14:00 to 13:10 76.16 76.70 76.61 75.79 76.42 76.76
9/28/2015 13:00 to 12:10 75.64 76.42 75.49 76.40 75.64 75.14
9/28/2015 12:00 to 11:10 75.72 76.46 76.35 78.17 77.15 77.46
9/28/2015 11:00 to 10:10 77.11 76.40 76.55 77.15 77.22 75.72
9/28/2015 10:00 to 9:10 77.48 77.00 76.68 76.89 76.44 75.47
9/28/2015 09:00 to 8:10 75.90 77.11 78.19 77.41 76.85 76.35
9/28/2015 08:00 to 7:10 75.68 75.83 77.80 80.57 80.38 77.13
9/28/2015 07:00 to 6:10 75.59 73.21 77.89 77.02 79.73 78.93
9/28/2015 06:00 to 5:10 76.92 76.98 77.76 78.19 78.41 76.37
9/28/2015 05:00 to 4:10 74.86 74.90 73.63 74.69 75.70 77.20
9/28/2015 04:00 to 3:10 76.66 76.44 77.63 77.07 77.15 76.29
9/28/2015 03:00 to 2:10 75.70 74.77 75.05 74.56 73.76 73.32
9/28/2015 02:00 to 1:10 73.21 73.08 73.56 75.38 74.73 74.04
9/28/2015 01:00 to 0:10 73.95 74.17 73.06 74.10 75.49 75.16